createdAt,value
2019-05-22T00:01:49.718Z,13.02
2019-05-22T00:04:42.205Z,13.10
2019-05-22T00:07:13.430Z,13.06
2019-05-22T00:09:49.568Z,13.07
2019-05-22T00:12:21.276Z,12.99
2019-05-22T00:14:52.605Z,12.94
2019-05-22T00:17:30.361Z,12.79
2019-05-22T00:20:00.327Z,12.83
2019-05-22T00:22:31.478Z,12.72
2019-05-22T00:25:01.952Z,12.71
2019-05-22T00:27:32.360Z,12.72
2019-05-22T00:30:02.140Z,12.62
2019-05-22T00:32:31.204Z,12.67
2019-05-22T00:35:00.181Z,12.72
2019-05-22T00:37:29.635Z,12.65
2019-05-22T00:40:00.251Z,12.67
2019-05-22T00:42:29.176Z,12.68
2019-05-22T00:44:59.561Z,12.59
2019-05-22T00:47:31.337Z,12.62
2019-05-22T00:50:03.705Z,12.58
2019-05-22T00:53:00.210Z,12.57
2019-05-22T00:55:50.373Z,12.54
2019-05-22T00:58:30.117Z,12.54
2019-05-22T01:01:12.818Z,12.50
2019-05-22T01:03:43.409Z,12.61
2019-05-22T01:06:13.215Z,12.57
2019-05-22T01:08:44.478Z,12.55
2019-05-22T01:11:14.970Z,12.55
2019-05-22T01:13:45.647Z,12.65
2019-05-22T01:16:17.460Z,12.58
2019-05-22T01:18:47.340Z,12.52
2019-05-22T01:21:21.634Z,12.59
2019-05-22T01:23:52.427Z,12.52
2019-05-22T01:26:22.938Z,12.58
2019-05-22T01:28:53.164Z,12.50
2019-05-22T01:31:31.036Z,12.50
2019-05-22T01:34:05.764Z,12.48
2019-05-22T01:36:47.096Z,12.50
2019-05-22T01:39:28.201Z,12.47
2019-05-22T01:41:59.081Z,12.49
2019-05-22T01:44:30.205Z,12.44
2019-05-22T01:47:04.378Z,12.46
2019-05-22T01:49:35.189Z,12.49
2019-05-22T01:52:04.106Z,12.56
2019-05-22T01:54:33.171Z,12.53
2019-05-22T01:57:06.960Z,12.44
2019-05-22T01:59:36.729Z,12.43
2019-05-22T02:02:09.441Z,12.35
2019-05-22T02:04:38.620Z,12.52
2019-05-22T02:07:09.434Z,12.42
2019-05-22T02:09:40.713Z,12.36
2019-05-22T02:12:34.759Z,12.27
2019-05-22T02:15:04.849Z,12.26
2019-05-22T02:17:35.325Z,12.29
2019-05-22T02:20:06.660Z,12.39
2019-05-22T02:22:36.643Z,12.34
2019-05-22T02:25:06.363Z,12.29
2019-05-22T02:27:35.485Z,12.23
2019-05-22T02:30:14.636Z,12.22
2019-05-22T02:32:46.239Z,12.24
2019-05-22T02:35:16.326Z,12.22
2019-05-22T02:37:45.340Z,12.30
2019-05-22T02:40:19.304Z,12.26
2019-05-22T02:42:48.791Z,12.26
2019-05-22T02:45:18.421Z,12.23
2019-05-22T02:47:48.874Z,12.14
2019-05-22T02:50:18.246Z,12.12
2019-05-22T02:52:47.844Z,12.15
2019-05-22T02:55:16.752Z,12.19
2019-05-22T02:57:46.598Z,12.18
2019-05-22T03:00:16.838Z,12.23
2019-05-22T03:02:51.090Z,12.30
2019-05-22T03:05:20.756Z,12.32
2019-05-22T03:07:49.861Z,12.26
2019-05-22T03:10:22.500Z,12.25
2019-05-22T03:12:52.115Z,12.18
2019-05-22T03:15:24.314Z,12.16
2019-05-22T03:18:01.818Z,12.13
2019-05-22T03:20:33.216Z,12.09
2019-05-22T03:23:41.025Z,12.09
2019-05-22T03:26:11.134Z,12.15
2019-05-22T03:28:40.921Z,12.13
2019-05-22T03:31:10.720Z,12.17
2019-05-22T03:33:40.036Z,12.14
2019-05-22T03:36:13.611Z,12.15
2019-05-22T03:38:44.085Z,12.13
2019-05-22T03:41:14.005Z,12.11
2019-05-22T03:43:46.005Z,12.11
2019-05-22T03:46:25.184Z,12.13
2019-05-22T03:48:54.836Z,12.07
2019-05-22T03:51:24.260Z,12.17
2019-05-22T03:53:54.145Z,12.02
2019-05-22T03:56:24.022Z,12.02
2019-05-22T03:58:53.382Z,12.09
2019-05-22T04:01:23.378Z,12.16
2019-05-22T04:03:52.460Z,12.03
2019-05-22T04:06:21.976Z,12.02
2019-05-22T04:08:53.929Z,12.07
2019-05-22T04:11:25.437Z,12.05
2019-05-22T04:13:54.640Z,11.99
2019-05-22T04:16:24.989Z,12.03
2019-05-22T04:18:55.813Z,12.01
2019-05-22T04:21:25.046Z,12.11
2019-05-22T04:23:53.972Z,12.01
2019-05-22T04:26:24.475Z,12.01
2019-05-22T04:28:55.653Z,11.94
2019-05-22T04:32:06.781Z,12.00
2019-05-22T04:34:35.934Z,12.00
2019-05-22T04:37:05.463Z,12.07
2019-05-22T04:39:36.000Z,12.09
2019-05-22T04:42:07.395Z,12.11
2019-05-22T04:44:39.869Z,11.95
2019-05-22T04:47:09.503Z,11.92
2019-05-22T04:49:38.845Z,11.87
2019-05-22T04:52:08.069Z,11.89
2019-05-22T04:54:37.806Z,11.84
2019-05-22T04:57:07.655Z,11.90
2019-05-22T04:59:36.482Z,11.85
2019-05-22T05:02:07.399Z,11.98
2019-05-22T05:04:36.190Z,12.00
2019-05-22T05:07:11.130Z,11.92
2019-05-22T05:09:41.380Z,11.99
2019-05-22T05:12:10.793Z,11.86
2019-05-22T05:14:40.085Z,11.87
2019-05-22T05:17:09.468Z,11.78
2019-05-22T05:19:38.449Z,11.72
2019-05-22T05:22:07.267Z,11.79
2019-05-22T05:24:36.011Z,11.68
2019-05-22T05:27:06.904Z,11.68
2019-05-22T05:29:35.631Z,11.59
2019-05-22T05:32:05.896Z,11.61
2019-05-22T05:34:41.330Z,11.55
2019-05-22T05:37:14.062Z,11.65
2019-05-22T05:40:27.836Z,11.79
2019-05-22T05:42:57.314Z,11.73
2019-05-22T05:45:28.128Z,11.72
2019-05-22T05:47:58.669Z,11.73
2019-05-22T05:50:38.872Z,11.73
2019-05-22T05:53:01.885Z,11.82
2019-05-22T05:56:03.244Z,11.82
2019-05-22T05:58:34.716Z,11.94
2019-05-22T06:01:15.164Z,11.85
2019-05-22T06:03:45.086Z,11.74
2019-05-22T06:06:52.886Z,11.84
2019-05-22T06:09:24.903Z,11.81
2019-05-22T06:11:55.852Z,11.92
2019-05-22T06:14:28.274Z,11.98
2019-05-22T06:17:38.658Z,12.00
2019-05-22T06:20:12.375Z,12.06
2019-05-22T06:22:43.458Z,11.95
2019-05-22T06:25:15.498Z,11.94
2019-05-22T06:27:53.306Z,11.95
2019-05-22T06:30:46.358Z,12.02
2019-05-22T06:33:43.709Z,11.90
2019-05-22T06:36:16.514Z,12.02
2019-05-22T06:38:59.364Z,12.07
2019-05-22T06:41:32.801Z,12.03
2019-05-22T06:44:37.716Z,12.17
2019-05-22T06:47:25.716Z,12.18
2019-05-22T06:49:56.692Z,12.01
2019-05-22T06:52:26.310Z,11.82
2019-05-22T06:54:56.291Z,11.86
2019-05-22T06:57:31.976Z,11.85
2019-05-22T07:00:13.862Z,11.85
2019-05-22T07:02:35.536Z,11.86
2019-05-22T07:05:06.349Z,11.94
2019-05-22T07:07:35.153Z,11.84
2019-05-22T07:10:05.415Z,11.88
2019-05-22T07:12:35.956Z,11.95
2019-05-22T07:15:46.600Z,11.95
2019-05-22T07:18:20.028Z,11.90
2019-05-22T07:20:50.268Z,11.94
2019-05-22T07:23:28.386Z,11.86
2019-05-22T07:25:58.576Z,12.00
2019-05-22T07:28:29.712Z,12.01
2019-05-22T07:30:59.379Z,12.01
2019-05-22T07:33:28.075Z,12.07
2019-05-22T07:36:09.539Z,11.92
2019-05-22T07:38:27.767Z,11.92
2019-05-22T07:40:56.653Z,11.79
2019-05-22T07:43:25.557Z,11.84
2019-05-22T07:45:57.347Z,11.91
2019-05-22T07:48:27.430Z,11.99
2019-05-22T07:50:57.440Z,12.05
2019-05-22T07:53:27.290Z,11.93
2019-05-22T07:55:58.310Z,11.92
2019-05-22T07:58:29.792Z,11.77
2019-05-22T08:01:01.446Z,11.92
2019-05-22T08:03:31.871Z,11.91
2019-05-22T08:06:02.650Z,11.89
2019-05-22T08:08:35.053Z,11.75
2019-05-22T08:11:04.727Z,11.81
2019-05-22T08:13:34.704Z,11.80
2019-05-22T08:16:03.753Z,11.73
2019-05-22T08:18:37.787Z,11.83
2019-05-22T08:21:07.021Z,11.92
2019-05-22T08:23:36.707Z,11.76
2019-05-22T08:26:06.827Z,11.69
2019-05-22T08:28:36.892Z,11.69
2019-05-22T08:31:07.514Z,11.67
2019-05-22T08:33:38.474Z,11.66
2019-05-22T08:36:08.319Z,11.68
2019-05-22T08:38:37.282Z,11.78
2019-05-22T08:41:09.240Z,11.85
2019-05-22T08:44:03.301Z,11.83
2019-05-22T08:46:10.984Z,11.84
2019-05-22T08:48:47.850Z,11.76
2019-05-22T08:51:14.524Z,11.77
2019-05-22T08:53:48.182Z,11.77
2019-05-22T08:56:15.378Z,11.67
2019-05-22T08:58:45.074Z,11.73
2019-05-22T09:01:14.375Z,11.74
2019-05-22T09:03:43.974Z,11.73
2019-05-22T09:06:18.187Z,11.59
2019-05-22T09:08:49.105Z,11.58
2019-05-22T09:11:17.861Z,11.56
2019-05-22T09:13:47.105Z,11.63
2019-05-22T09:16:16.427Z,11.63
2019-05-22T09:18:46.109Z,11.41
2019-05-22T09:21:15.450Z,11.48
2019-05-22T09:23:44.364Z,11.58
2019-05-22T09:26:13.438Z,11.46
2019-05-22T09:28:42.411Z,11.45
2019-05-22T09:31:11.179Z,11.57
2019-05-22T09:33:40.071Z,11.60
2019-05-22T09:36:09.546Z,11.73
2019-05-22T09:38:38.636Z,11.69
2019-05-22T09:41:07.681Z,11.90
2019-05-22T09:43:36.483Z,11.65
2019-05-22T09:46:06.778Z,11.63
2019-05-22T09:48:36.053Z,11.82
2019-05-22T09:51:04.954Z,11.87
2019-05-22T09:53:34.775Z,11.78
2019-05-22T09:56:04.010Z,11.78
2019-05-22T09:58:32.998Z,11.71
2019-05-22T10:01:02.438Z,11.69
2019-05-22T10:03:31.233Z,11.85
2019-05-22T10:06:00.700Z,11.95
2019-05-22T10:08:29.998Z,12.24
2019-05-22T10:10:59.080Z,12.19
2019-05-22T10:13:29.221Z,12.35
2019-05-22T10:15:59.147Z,12.32
2019-05-22T10:18:28.512Z,12.43
2019-05-22T10:20:57.271Z,12.40
2019-05-22T10:23:26.514Z,12.31
2019-05-22T10:25:55.703Z,12.10
2019-05-22T10:28:24.589Z,11.98
2019-05-22T10:30:54.414Z,12.15
2019-05-22T10:33:24.541Z,12.02
2019-05-22T10:35:53.577Z,11.93
2019-05-22T10:38:22.879Z,11.91
2019-05-22T10:40:51.905Z,11.93
2019-05-22T10:43:21.093Z,11.77
2019-05-22T10:45:49.988Z,11.74
2019-05-22T10:48:18.773Z,11.69
2019-05-22T10:50:47.571Z,11.86
2019-05-22T10:53:32.319Z,11.77
2019-05-22T10:55:46.838Z,11.67
2019-05-22T10:58:16.319Z,11.83
2019-05-22T11:00:45.200Z,11.89
2019-05-22T11:03:15.123Z,11.76
2019-05-22T11:05:44.440Z,12.02
2019-05-22T11:08:13.514Z,12.03
2019-05-22T11:10:45.178Z,11.99
2019-05-22T11:13:13.661Z,12.34
2019-05-22T11:15:42.481Z,12.56
2019-05-22T11:18:11.313Z,12.72
2019-05-22T11:20:40.650Z,12.15
2019-05-22T11:23:10.400Z,11.97
2019-05-22T11:25:39.313Z,11.80
2019-05-22T11:28:08.106Z,12.04
2019-05-22T11:30:37.727Z,11.97
2019-05-22T11:33:07.281Z,11.96
2019-05-22T11:35:36.510Z,11.95
2019-05-22T11:38:05.595Z,11.78
2019-05-22T11:40:34.843Z,11.73
2019-05-22T11:43:04.250Z,11.74
2019-05-22T11:45:33.348Z,11.70
2019-05-22T11:48:02.188Z,11.54
2019-05-22T11:50:33.403Z,11.60
2019-05-22T11:53:02.332Z,11.50
2019-05-22T11:55:44.091Z,11.63
2019-05-22T11:58:02.464Z,11.82
2019-05-22T12:00:31.387Z,11.93
2019-05-22T12:03:02.043Z,11.88
2019-05-22T12:05:32.210Z,11.98
2019-05-22T12:08:02.096Z,11.95
2019-05-22T12:10:31.231Z,11.93
2019-05-22T12:13:01.294Z,11.86
2019-05-22T12:15:30.968Z,11.79
2019-05-22T12:18:00.570Z,11.83
2019-05-22T12:20:30.725Z,11.72
2019-05-22T12:22:59.595Z,11.78
2019-05-22T12:25:29.188Z,12.11
2019-05-22T12:27:58.615Z,12.03
2019-05-22T12:30:28.433Z,11.97
2019-05-22T12:32:59.352Z,11.62
2019-05-22T12:35:29.131Z,11.69
2019-05-22T12:37:58.738Z,11.53
2019-05-22T12:40:31.973Z,11.42
2019-05-22T12:43:02.187Z,11.56
2019-05-22T12:45:31.150Z,11.54
2019-05-22T12:48:01.119Z,11.80
2019-05-22T12:50:31.861Z,11.97
2019-05-22T12:53:02.804Z,12.03
2019-05-22T12:55:32.294Z,11.81
2019-05-22T12:58:02.202Z,11.86
2019-05-22T13:00:31.259Z,11.73
2019-05-22T13:03:02.078Z,11.89
2019-05-22T13:05:32.113Z,11.83
2019-05-22T13:08:01.458Z,11.88
2019-05-22T13:10:31.045Z,12.01
2019-05-22T13:12:59.932Z,12.12
2019-05-22T13:15:28.923Z,12.15
2019-05-22T13:17:59.278Z,12.17
2019-05-22T13:20:41.931Z,12.53
2019-05-22T13:23:04.584Z,12.66
2019-05-22T13:25:37.015Z,12.76
2019-05-22T13:28:06.966Z,12.82
2019-05-22T13:30:39.354Z,13.01
2019-05-22T13:33:11.489Z,13.57
2019-05-22T13:35:41.747Z,13.56
2019-05-22T13:38:12.464Z,13.57
2019-05-22T13:40:41.407Z,13.19
2019-05-22T13:43:11.602Z,13.28
2019-05-22T13:45:40.665Z,13.08
2019-05-22T13:48:09.875Z,13.05
2019-05-22T13:50:39.312Z,13.38
2019-05-22T13:53:10.991Z,13.36
2019-05-22T13:55:40.282Z,13.28
2019-05-22T13:58:10.674Z,13.26
2019-05-22T14:00:40.541Z,13.40
2019-05-22T14:03:09.840Z,13.19
2019-05-22T14:05:39.105Z,13.63
2019-05-22T14:08:08.894Z,13.48
2019-05-22T14:10:39.719Z,13.38
2019-05-22T14:13:09.438Z,13.36
2019-05-22T14:15:50.508Z,13.24
2019-05-22T14:18:09.633Z,13.30
2019-05-22T14:20:38.850Z,13.29
2019-05-22T14:23:08.098Z,13.25
2019-05-22T14:25:37.560Z,13.24
2019-05-22T14:28:08.084Z,13.35
2019-05-22T14:30:37.837Z,13.22
2019-05-22T14:33:06.945Z,13.33
2019-05-22T14:35:48.439Z,13.41
2019-05-22T14:38:09.987Z,13.56
2019-05-22T14:40:39.223Z,13.62
2019-05-22T14:43:08.507Z,13.81
2019-05-22T14:45:38.068Z,13.91
2019-05-22T14:48:07.679Z,13.91
2019-05-22T14:50:37.320Z,13.96
2019-05-22T14:53:06.403Z,14.17
2019-05-22T14:55:37.084Z,14.22
2019-05-22T14:58:06.641Z,14.31
2019-05-22T15:00:36.577Z,14.29
2019-05-22T15:03:06.544Z,14.40
2019-05-22T15:05:35.643Z,14.33
2019-05-22T15:08:05.935Z,14.18
2019-05-22T15:10:36.072Z,14.27
2019-05-22T15:13:05.995Z,14.56
2019-05-22T15:15:40.145Z,14.72
2019-05-22T15:18:06.564Z,14.69
2019-05-22T15:20:42.125Z,14.77
2019-05-22T15:23:11.966Z,14.80
2019-05-22T15:25:41.509Z,14.78
2019-05-22T15:28:12.215Z,14.75
2019-05-22T15:30:47.286Z,14.75
2019-05-22T15:33:16.864Z,14.29
2019-05-22T15:35:48.093Z,14.32
2019-05-22T15:38:18.038Z,14.20
2019-05-22T15:40:46.851Z,14.26
2019-05-22T15:43:17.677Z,14.33
2019-05-22T15:45:46.714Z,14.27
2019-05-22T15:48:23.408Z,14.33
2019-05-22T15:50:55.962Z,14.46
2019-05-22T15:53:25.397Z,14.40
2019-05-22T15:55:55.485Z,14.62
2019-05-22T15:58:27.553Z,14.87
2019-05-22T16:00:58.768Z,14.77
2019-05-22T16:06:19.203Z,14.46
2019-05-22T16:08:49.628Z,14.32
2019-05-22T16:11:20.851Z,14.15
2019-05-22T16:13:51.193Z,14.14
2019-05-22T16:16:21.968Z,14.19
2019-05-22T16:18:52.412Z,14.51
2019-05-22T16:21:28.293Z,14.68
2019-05-22T16:23:59.689Z,14.68
2019-05-22T16:26:30.265Z,14.65
2019-05-22T16:29:02.539Z,14.68
2019-05-22T16:31:32.721Z,14.57
2019-05-22T16:34:01.861Z,14.46
2019-05-22T16:36:32.613Z,14.33
2019-05-22T16:39:02.370Z,14.28
2019-05-22T16:41:34.441Z,14.40
2019-05-22T16:44:04.374Z,14.33
2019-05-22T16:46:33.635Z,14.21
2019-05-22T16:49:02.585Z,14.30
2019-05-22T16:51:31.678Z,14.34
2019-05-22T16:54:06.202Z,14.19
2019-05-22T16:56:35.888Z,14.35
2019-05-22T16:59:05.781Z,14.37
2019-05-22T17:01:56.306Z,14.67
2019-05-22T17:04:06.999Z,14.99
2019-05-22T17:06:36.680Z,14.98
2019-05-22T17:09:09.456Z,14.91
2019-05-22T17:11:38.546Z,14.95
2019-05-22T17:14:08.991Z,14.72
2019-05-22T17:16:41.115Z,14.62
2019-05-22T17:19:25.803Z,14.56
2019-05-22T17:21:42.147Z,14.49
2019-05-22T17:24:11.488Z,14.77
2019-05-22T17:26:41.363Z,14.79
2019-05-22T17:29:11.985Z,14.70
2019-05-22T17:31:47.879Z,14.47
2019-05-22T17:34:36.730Z,14.71
2019-05-22T17:37:18.578Z,14.66
2019-05-22T17:39:53.546Z,14.69
2019-05-22T17:42:30.305Z,14.63
2019-05-22T17:45:01.718Z,14.62
2019-05-22T17:47:31.746Z,14.76
2019-05-22T17:50:03.290Z,14.71
2019-05-22T17:52:35.514Z,14.73
2019-05-22T17:55:06.422Z,14.87
2019-05-22T17:57:37.308Z,14.75
2019-05-22T18:00:13.261Z,14.67
2019-05-22T18:02:42.373Z,14.59
2019-05-22T18:05:12.170Z,14.44
2019-05-22T18:07:41.722Z,14.44
2019-05-22T18:10:11.513Z,14.28
2019-05-22T18:12:41.906Z,14.22
2019-05-22T18:15:12.070Z,14.00
2019-05-22T18:17:41.346Z,13.99
2019-05-22T18:20:11.346Z,13.72
2019-05-22T18:22:40.505Z,13.21
2019-05-22T18:25:10.244Z,13.07
2019-05-22T18:27:43.684Z,13.00
2019-05-22T18:30:14.315Z,12.93
2019-05-22T18:32:43.897Z,12.90
2019-05-22T18:35:18.133Z,12.72
2019-05-22T18:37:47.006Z,12.68
2019-05-22T18:40:18.987Z,12.41
2019-05-22T18:42:48.126Z,12.31
2019-05-22T18:45:18.389Z,12.09
2019-05-22T18:47:47.993Z,11.82
2019-05-22T18:50:17.590Z,11.74
2019-05-22T18:52:50.224Z,11.72
2019-05-22T18:55:19.911Z,11.64
2019-05-22T18:57:48.856Z,11.63
2019-05-22T19:00:22.401Z,11.52
2019-05-22T19:02:51.921Z,11.64
2019-05-22T19:05:24.792Z,11.60
2019-05-22T19:07:53.781Z,11.45
2019-05-22T19:10:23.122Z,11.49
2019-05-22T19:12:52.210Z,11.26
2019-05-22T19:15:21.400Z,11.14
2019-05-22T19:17:50.440Z,11.13
2019-05-22T19:20:20.108Z,10.97
2019-05-22T19:23:00.360Z,11.01
2019-05-22T19:25:30.821Z,10.94
2019-05-22T19:27:59.738Z,10.83
2019-05-22T19:30:28.995Z,10.73
2019-05-22T19:32:57.934Z,10.64
2019-05-22T19:35:26.853Z,10.53
2019-05-22T19:37:56.741Z,10.44
2019-05-22T19:40:25.890Z,10.55
2019-05-22T19:42:55.268Z,10.43
2019-05-22T19:45:24.203Z,10.42
2019-05-22T19:47:56.864Z,10.44
2019-05-22T19:50:26.879Z,10.23
2019-05-22T19:52:57.545Z,10.20
2019-05-22T19:55:29.278Z,9.84
2019-05-22T19:57:58.907Z,9.82
2019-05-22T20:00:27.968Z,9.86
2019-05-22T20:02:56.923Z,9.97
2019-05-22T20:05:26.478Z,9.81
2019-05-22T20:07:55.872Z,9.87
2019-05-22T20:10:25.330Z,9.78
2019-05-22T20:12:55.496Z,9.72
2019-05-22T20:15:24.880Z,9.65
2019-05-22T20:17:54.229Z,9.63
2019-05-22T20:20:24.229Z,9.56
2019-05-22T20:22:53.162Z,9.66
2019-05-22T20:25:22.928Z,9.64
2019-05-22T20:27:52.058Z,9.55
2019-05-22T20:30:22.923Z,9.48
2019-05-22T20:32:52.259Z,9.48
2019-05-22T20:35:21.371Z,9.48
2019-05-22T20:37:50.618Z,9.52
2019-05-22T20:40:22.037Z,9.49
2019-05-22T20:42:51.582Z,9.46
2019-05-22T20:45:24.649Z,9.43
2019-05-22T20:48:09.641Z,9.40
2019-05-22T20:50:47.417Z,9.38
2019-05-22T20:53:17.205Z,9.32
2019-05-22T20:55:48.374Z,9.13
2019-05-22T20:58:19.231Z,9.08
2019-05-22T21:00:49.908Z,9.10
2019-05-22T21:03:21.209Z,8.93
2019-05-22T21:05:52.863Z,8.93
2019-05-22T21:08:24.272Z,8.76
2019-05-22T21:10:54.272Z,8.69
2019-05-22T21:13:23.827Z,8.67
2019-05-22T21:15:55.038Z,8.67
2019-05-22T21:18:30.841Z,8.49
2019-05-22T21:21:00.760Z,8.60
2019-05-22T21:23:30.380Z,8.53
2019-05-22T21:25:59.289Z,8.59
2019-05-22T21:28:28.532Z,8.48
2019-05-22T21:30:58.362Z,8.48
2019-05-22T21:33:28.965Z,8.46
2019-05-22T21:35:58.512Z,8.46
2019-05-22T21:38:29.268Z,8.48
2019-05-22T21:40:59.501Z,8.40
2019-05-22T21:43:29.451Z,8.35
2019-05-22T21:45:58.929Z,8.38
2019-05-22T21:48:29.833Z,8.27
2019-05-22T21:50:58.884Z,8.22
2019-05-22T21:53:28.229Z,8.08
2019-05-22T21:56:04.733Z,8.08
2019-05-22T21:58:29.253Z,8.03
2019-05-22T22:01:26.495Z,8.03
2019-05-22T22:04:17.074Z,8.18
2019-05-22T22:06:47.802Z,8.06
2019-05-22T22:09:18.462Z,8.03
2019-05-22T22:11:48.464Z,8.02
2019-05-22T22:14:18.460Z,8.11
2019-05-22T22:16:47.868Z,8.11
2019-05-22T22:19:18.300Z,8.07
2019-05-22T22:21:48.133Z,8.03
2019-05-22T22:24:17.339Z,7.90
2019-05-22T22:26:46.901Z,7.97
2019-05-22T22:29:16.216Z,7.84
2019-05-22T22:31:46.218Z,7.91
2019-05-22T22:34:23.407Z,7.81
2019-05-22T22:36:52.380Z,7.76
2019-05-22T22:39:23.154Z,7.79
2019-05-22T22:41:53.344Z,7.83
2019-05-22T22:44:22.592Z,7.87
2019-05-22T22:46:56.036Z,7.84
2019-05-22T22:49:28.977Z,7.81
2019-05-22T22:51:59.107Z,7.92
2019-05-22T22:54:28.893Z,7.89
2019-05-22T22:56:59.125Z,7.91
2019-05-22T22:59:28.328Z,7.88
2019-05-22T23:02:00.651Z,7.75
2019-05-22T23:04:30.824Z,7.74
2019-05-22T23:07:05.848Z,7.82
2019-05-22T23:09:37.698Z,7.63
2019-05-22T23:12:07.767Z,7.68
2019-05-22T23:14:37.759Z,7.70
2019-05-22T23:17:08.627Z,7.64
2019-05-22T23:19:38.457Z,7.47
2019-05-22T23:22:27.443Z,7.58
2019-05-22T23:24:56.704Z,7.35
2019-05-22T23:27:27.358Z,7.30
2019-05-22T23:29:56.985Z,7.35
2019-05-22T23:32:27.022Z,7.30
2019-05-22T23:34:58.727Z,7.29
2019-05-22T23:37:28.708Z,7.31
2019-05-22T23:39:59.258Z,7.20
2019-05-22T23:42:36.175Z,7.04
2019-05-22T23:45:08.138Z,7.07
2019-05-22T23:47:51.356Z,7.20
2019-05-22T23:50:20.665Z,7.07
2019-05-22T23:52:49.426Z,7.08
2019-05-22T23:55:19.055Z,7.01
2019-05-22T23:57:51.119Z,7.07
